Terminal Aerodrome Forecast
Issued by NWS

Home | Current Version | Previous Version | Text Only | Print | Product List | Glossary On
Versions: 1 2 3 4 5 6 7 8 9 10 11 12 13 14 15 16 17 18 19
000
FTUS41 KPBZ 010500
TAFLBE
TAF
KLBE 010524Z 0106/0206 21008KT P6SM OVC040
     FM011100 VRB03KT 3SM -SN BR OVC025
     FM011300 10005KT 1SM -SN BR OVC005
     FM012200 11006KT 2SM -DZ BR BKN008 OVC080
     FM020400 14005KT 2SM -RA BR OVC005=

USA.gov is the U.S. government's official web portal to all federal, state and local government web resources and services.